createdAt,value
2022-09-15T00:04:34.535Z,10.20
2022-09-15T00:09:37.687Z,10.60
2022-09-15T00:14:40.630Z,10.60
2022-09-15T00:19:43.368Z,9.82
2022-09-15T00:24:49.625Z,10.13
2022-09-15T00:29:52.667Z,9.50
2022-09-15T00:34:55.486Z,9.82
2022-09-15T00:39:58.330Z,9.43
2022-09-15T00:45:03.230Z,11.90
2022-09-15T00:50:15.130Z,11.70
2022-09-15T00:55:23.477Z,12.32
2022-09-15T01:00:30.774Z,11.93
2022-09-15T01:05:38.999Z,12.15
2022-09-15T01:10:42.022Z,12.77
2022-09-15T01:16:08.042Z,12.77
2022-09-15T01:21:17.904Z,12.85
2022-09-15T01:26:46.938Z,13.30
2022-09-15T01:32:28.447Z,12.18
2022-09-15T01:37:36.496Z,11.73
2022-09-15T01:42:40.444Z,12.48
2022-09-15T01:47:43.731Z,11.20
2022-09-15T01:52:49.384Z,11.40
2022-09-15T01:57:52.166Z,10.85
2022-09-15T02:03:01.674Z,12.13
2022-09-15T02:08:10.686Z,10.18
2022-09-15T02:13:19.678Z,11.20
2022-09-15T02:18:35.127Z,9.52
2022-09-15T02:23:43.859Z,9.43
2022-09-15T02:28:48.182Z,10.32
2022-09-15T02:34:15.606Z,10.90
2022-09-15T02:39:19.953Z,13.00
2022-09-15T02:44:23.818Z,18.75
2022-09-15T02:49:26.668Z,16.70
2022-09-15T02:54:29.459Z,17.75
2022-09-15T02:59:52.193Z,18.45
2022-09-15T03:04:57.912Z,17.45
2022-09-15T03:10:00.772Z,13.90
2022-09-15T03:15:03.629Z,11.10
2022-09-15T03:20:08.401Z,12.30
2022-09-15T03:25:11.747Z,12.00
2022-09-15T03:30:14.830Z,16.85
2022-09-15T03:35:17.664Z,20.33
2022-09-15T03:40:20.677Z,19.20
2022-09-15T03:45:23.405Z,15.27
2022-09-15T03:50:26.155Z,21.98
2022-09-15T03:55:31.516Z,15.77
2022-09-15T04:00:34.663Z,16.25
2022-09-15T04:05:37.777Z,17.85
2022-09-15T04:10:41.350Z,15.60
2022-09-15T04:15:44.998Z,11.32
2022-09-15T04:20:47.711Z,11.43
2022-09-15T04:25:58.726Z,8.52
2022-09-15T04:31:12.213Z,8.07
2022-09-15T04:36:19.811Z,8.63
2022-09-15T04:41:23.196Z,9.13
2022-09-15T04:46:26.228Z,7.85
2022-09-15T04:51:29.336Z,5.40
2022-09-15T04:56:32.095Z,4.20
2022-09-15T05:01:35.722Z,5.13
2022-09-15T05:06:39.297Z,2.53
2022-09-15T05:11:42.187Z,3.58
2022-09-15T05:16:44.900Z,1.92
2022-09-15T05:21:47.623Z,5.05
2022-09-15T05:26:50.350Z,4.90
2022-09-15T05:31:53.169Z,2.85
2022-09-15T05:36:55.826Z,3.83
2022-09-15T05:41:58.568Z,1.80
2022-09-15T05:47:01.635Z,2.47
2022-09-15T05:52:05.186Z,1.67
2022-09-15T05:57:07.985Z,2.20
2022-09-15T06:02:12.083Z,2.30
2022-09-15T06:07:14.985Z,1.92
2022-09-15T06:12:18.770Z,2.42
2022-09-15T06:17:23.523Z,3.67
2022-09-15T06:22:26.308Z,2.53
2022-09-15T06:27:29.092Z,2.30
2022-09-15T06:32:31.896Z,2.65
2022-09-15T06:37:35.379Z,2.20
2022-09-15T06:42:38.138Z,2.05
2022-09-15T06:47:40.784Z,1.77
2022-09-15T06:52:43.987Z,1.80
2022-09-15T06:57:46.668Z,0.77
2022-09-15T07:02:50.446Z,1.77
2022-09-15T07:07:53.404Z,1.50
2022-09-15T07:12:56.194Z,1.10
2022-09-15T07:17:59.819Z,1.40
2022-09-15T07:23:02.538Z,1.95
2022-09-15T07:28:05.367Z,3.80
2022-09-15T07:33:09.533Z,2.08
2022-09-15T07:38:12.262Z,2.95
2022-09-15T07:43:15.179Z,1.63
2022-09-15T07:48:17.835Z,2.05
2022-09-15T07:53:21.131Z,1.70
2022-09-15T07:58:24.258Z,2.20
2022-09-15T08:03:27.001Z,1.70
2022-09-15T08:08:30.411Z,1.90
2022-09-15T08:13:33.089Z,1.50
2022-09-15T08:18:36.457Z,1.80
2022-09-15T08:23:39.126Z,2.60
2022-09-15T08:28:42.609Z,2.58
2022-09-15T08:33:50.208Z,2.50
2022-09-15T08:38:53.086Z,2.00
2022-09-15T08:43:58.449Z,2.35
2022-09-15T08:49:27.024Z,2.13
2022-09-15T08:54:40.851Z,1.77
2022-09-15T08:59:43.795Z,2.08
2022-09-15T09:05:19.102Z,2.30
2022-09-15T09:10:30.602Z,1.88
2022-09-15T09:15:48.246Z,2.80
2022-09-15T09:21:04.977Z,3.17
2022-09-15T09:26:10.688Z,2.67
2022-09-15T09:31:21.071Z,3.20
2022-09-15T09:36:24.078Z,2.80
2022-09-15T09:41:35.935Z,2.60
2022-09-15T09:46:39.225Z,2.80
2022-09-15T09:52:02.636Z,2.80
2022-09-15T09:57:14.612Z,2.60
2022-09-15T10:02:18.739Z,2.53
2022-09-15T10:07:25.991Z,4.00
2022-09-15T10:12:30.918Z,3.80
2022-09-15T10:17:36.491Z,4.68
2022-09-15T10:22:40.631Z,5.53
2022-09-15T10:27:43.857Z,4.55
2022-09-15T10:32:47.277Z,5.47
2022-09-15T10:38:00.213Z,5.97
2022-09-15T10:43:28.969Z,5.07
2022-09-15T10:49:33.249Z,5.07
2022-09-15T10:54:54.842Z,3.90
2022-09-15T11:00:11.179Z,4.72
2022-09-15T11:05:24.258Z,3.75
2022-09-15T11:10:38.567Z,3.70
2022-09-15T11:16:05.659Z,4.25
2022-09-15T11:21:21.943Z,1.73
2022-09-15T11:26:37.895Z,3.53
2022-09-15T11:31:43.305Z,4.13
2022-09-15T11:36:55.989Z,3.92
2022-09-15T11:42:05.178Z,4.05
2022-09-15T11:47:17.015Z,5.05
2022-09-15T11:52:41.645Z,5.43
2022-09-15T11:57:54.134Z,5.35
2022-09-15T12:03:32.237Z,6.18
2022-09-15T12:08:41.848Z,5.00
2022-09-15T12:13:45.959Z,4.50
2022-09-15T12:19:12.794Z,4.68
2022-09-15T12:24:15.517Z,4.15
2022-09-15T12:29:27.058Z,3.60
2022-09-15T12:34:33.490Z,4.32
2022-09-15T12:39:43.596Z,4.90
2022-09-15T12:44:58.390Z,4.82
2022-09-15T12:50:09.470Z,5.78
2022-09-15T12:55:24.550Z,7.53
2022-09-15T13:00:29.142Z,7.50
2022-09-15T13:05:46.488Z,7.33
2022-09-15T13:11:11.401Z,6.60
2022-09-15T13:16:54.274Z,7.80
2022-09-15T13:22:12.288Z,7.55
2022-09-15T13:27:19.104Z,6.40
2022-09-15T13:32:40.178Z,8.02
2022-09-15T13:43:46.800Z,6.55
2022-09-15T13:49:13.512Z,6.32
2022-09-15T13:54:19.486Z,6.05
2022-09-15T13:59:25.899Z,6.60
2022-09-15T14:04:31.440Z,6.80
2022-09-15T14:09:40.902Z,6.75
2022-09-15T14:14:51.175Z,6.72
2022-09-15T14:19:56.498Z,7.45
2022-09-15T14:25:01.269Z,7.22
2022-09-15T14:30:09.175Z,7.13
2022-09-15T14:35:19.857Z,7.72
2022-09-15T14:40:35.479Z,8.10
2022-09-15T14:51:19.089Z,8.35
2022-09-15T14:56:25.375Z,8.75
2022-09-15T15:01:44.043Z,9.70
2022-09-15T15:07:05.249Z,10.32
2022-09-15T15:12:19.618Z,10.13
2022-09-15T15:17:34.682Z,11.07
2022-09-15T15:22:38.889Z,12.40
2022-09-15T15:27:42.496Z,11.45
2022-09-15T15:32:45.439Z,12.60
2022-09-15T15:37:48.399Z,12.13
2022-09-15T15:43:01.583Z,11.05
2022-09-15T15:48:04.796Z,11.48
2022-09-15T15:53:07.454Z,11.93
2022-09-15T15:58:12.200Z,11.23
2022-09-15T16:03:15.625Z,11.03
2022-09-15T16:08:31.532Z,13.35
2022-09-15T16:13:34.367Z,12.35
2022-09-15T16:18:36.998Z,12.35
2022-09-15T16:23:39.810Z,14.05
2022-09-15T16:28:42.766Z,13.30
2022-09-15T16:33:46.195Z,13.02
2022-09-15T16:38:49.050Z,13.63
2022-09-15T16:43:51.923Z,13.60
2022-09-15T16:48:55.472Z,14.05
2022-09-15T16:53:58.304Z,14.10
2022-09-15T16:59:01.267Z,15.85
2022-09-15T17:04:10.310Z,14.90
2022-09-15T17:09:12.956Z,14.82
2022-09-15T17:14:17.328Z,14.82
2022-09-15T17:19:20.160Z,15.40
2022-09-15T17:24:22.852Z,16.40
2022-09-15T17:29:25.541Z,14.65
2022-09-15T17:34:28.276Z,15.98
2022-09-15T17:39:31.412Z,16.20
2022-09-15T17:44:37.051Z,16.77
2022-09-15T17:49:40.522Z,16.60
2022-09-15T17:54:43.297Z,17.25
2022-09-15T17:59:45.984Z,16.52
2022-09-15T18:04:48.969Z,16.67
2022-09-15T18:09:51.772Z,16.73
2022-09-15T18:14:54.361Z,16.52
2022-09-15T18:19:57.021Z,17.13
2022-09-15T18:24:59.823Z,18.00
2022-09-15T18:30:02.618Z,17.35
2022-09-15T18:35:07.851Z,16.70
2022-09-15T18:40:12.835Z,18.17
2022-09-15T18:45:17.040Z,17.55
2022-09-15T18:50:21.815Z,18.33
2022-09-15T18:55:25.220Z,18.23
2022-09-15T19:00:29.054Z,18.10
2022-09-15T19:05:33.005Z,17.48
2022-09-15T19:10:35.792Z,17.40
2022-09-15T19:15:41.693Z,18.05
2022-09-15T19:20:44.411Z,18.27
2022-09-15T19:25:47.086Z,18.92
2022-09-15T19:30:50.045Z,20.33
2022-09-15T19:36:10.553Z,21.33
2022-09-15T19:41:15.611Z,21.05
2022-09-15T19:46:21.103Z,19.43
2022-09-15T19:51:24.486Z,20.13
2022-09-15T19:56:28.264Z,20.17
2022-09-15T20:01:33.004Z,20.58
2022-09-15T20:06:36.576Z,20.58
2022-09-15T20:11:39.368Z,20.52
2022-09-15T20:16:42.286Z,20.63
2022-09-15T20:21:50.233Z,20.80
2022-09-15T20:26:54.000Z,20.40
2022-09-15T20:31:56.757Z,20.63
2022-09-15T20:36:59.450Z,20.55
2022-09-15T20:42:02.210Z,22.45
2022-09-15T20:47:05.129Z,24.30
2022-09-15T20:52:07.852Z,23.63
2022-09-15T20:57:10.624Z,25.67
2022-09-15T21:02:13.533Z,32.53
2022-09-15T21:07:16.610Z,31.23
2022-09-15T21:12:19.392Z,28.48
2022-09-15T21:17:23.491Z,26.40
2022-09-15T21:22:26.328Z,24.95
2022-09-15T21:27:29.193Z,26.02
2022-09-15T21:32:33.470Z,24.13
2022-09-15T21:37:36.208Z,23.70
2022-09-15T21:42:39.718Z,23.20
2022-09-15T21:47:42.585Z,23.35
2022-09-15T21:52:45.241Z,24.05
2022-09-15T21:57:47.935Z,23.08
2022-09-15T22:02:53.567Z,23.45
2022-09-15T22:07:56.329Z,22.88
2022-09-15T22:12:59.078Z,23.67
2022-09-15T22:18:02.414Z,24.77
2022-09-15T22:23:05.687Z,25.50
2022-09-15T22:28:08.408Z,27.27
2022-09-15T22:33:11.106Z,28.15
2022-09-15T22:38:13.884Z,30.77
2022-09-15T22:43:16.651Z,29.52
2022-09-15T22:48:19.334Z,31.40
2022-09-15T22:53:23.789Z,32.28
2022-09-15T22:58:26.439Z,29.77
2022-09-15T23:03:29.191Z,29.20
2022-09-15T23:08:32.651Z,30.33
2022-09-15T23:13:36.121Z,27.60
2022-09-15T23:18:38.903Z,26.17
2022-09-15T23:23:43.596Z,25.48
2022-09-15T23:28:46.778Z,26.38
2022-09-15T23:33:50.020Z,23.75
2022-09-15T23:38:52.975Z,22.35
2022-09-15T23:43:55.987Z,23.42
2022-09-15T23:48:58.768Z,22.92
2022-09-15T23:54:02.559Z,21.63
2022-09-15T23:59:05.267Z,16.45
